Time;durP1;ratioP1;P1;durP2;ratioP2;P2;SDS_P1;SDS_P2;PMS_P1;PMS_P2;Temp;Humidity;BMP_temperature;BMP_pressure;BME280_temperature;BME280_humidity;BME280_pressure;Samples;Min_cycle;Max_cycle;Signal;HPM_P1;HPM_P2
2022/12/17 13:05:58;;;;;;;69.60;30.65;;;-3.70;99.90;;;;;;4977957;28;20192;-74
2022/12/17 13:08:24;;;;;;;75.87;34.13;;;-3.70;99.90;;;;;;4991687;28;20296;-74
2022/12/17 13:10:51;;;;;;;72.40;33.97;;;-3.60;99.90;;;;;;4974276;28;20568;-73
2022/12/17 13:13:17;;;;;;;73.85;33.10;;;-3.50;99.90;;;;;;4991800;28;20217;-75
2022/12/17 13:16:24;;;;;;;70.57;32.97;;;-3.40;99.90;;;;;;4991922;28;20178;-73
2022/12/17 13:19:15;;;;;;;84.63;36.53;;;-3.40;99.90;;;;;;4991367;28;20178;-74
2022/12/17 13:21:41;;;;;;;74.85;34.08;;;-3.40;99.90;;;;;;4974003;28;20210;-75
2022/12/17 13:24:11;;;;;;;73.00;32.20;;;-3.30;99.90;;;;;;4974374;28;20230;-74
2022/12/17 13:26:39;;;;;;;75.05;33.65;;;-3.50;99.90;;;;;;4974371;28;21016;-73
2022/12/17 13:29:34;;;;;;;67.20;32.53;;;-3.50;99.90;;;;;;4974211;28;20187;-74
2022/12/17 13:32:02;;;;;;;81.95;33.83;;;-3.60;99.90;;;;;;4991450;28;20224;-75
2022/12/17 13:34:46;;;;;;;86.60;33.67;;;-3.80;99.90;;;;;;4991299;28;20181;-74
2022/12/17 13:37:45;;;;;;;76.18;32.42;;;-3.80;99.90;;;;;;4991371;28;20181;-74
2022/12/17 13:40:28;;;;;;;85.53;37.55;;;-3.90;99.90;;;;;;4973432;28;20190;-74
2022/12/17 13:42:54;;;;;;;87.13;34.65;;;-4.20;99.90;;;;;;4990860;28;20201;-73
2022/12/17 13:45:23;;;;;;;115.10;36.27;;;-4.40;99.90;;;;;;4973088;28;20259;-74
2022/12/17 13:47:56;;;;;;;107.13;35.30;;;-4.70;99.90;;;;;;4990506;28;20237;-73
2022/12/17 13:50:28;;;;;;;98.50;37.95;;;-4.70;99.90;;;;;;4990934;28;20671;-73
2022/12/17 13:52:54;;;;;;;90.07;35.53;;;-4.90;99.90;;;;;;4972563;28;20202;-73
2022/12/17 13:55:25;;;;;;;75.25;32.42;;;-5.00;99.90;;;;;;4990598;28;20232;-74
2022/12/17 13:57:52;;;;;;;87.10;35.92;;;-5.20;99.90;;;;;;4973036;28;20194;-73
2022/12/17 14:00:31;;;;;;;143.80;35.45;;;-5.10;99.90;;;;;;4990680;28;20181;-73
2022/12/17 14:02:56;;;;;;;97.38;36.35;;;-5.20;99.90;;;;;;4990275;28;20715;-73
2022/12/17 14:05:32;;;;;;;110.17;34.03;;;-5.30;99.90;;;;;;4956464;28;20193;-72
2022/12/17 14:08:01;;;;;;;87.80;35.92;;;-5.30;99.90;;;;;;4990498;28;20223;-73
2022/12/17 14:10:28;;;;;;;253.07;39.95;;;-5.10;99.90;;;;;;4972894;28;20682;-73
2022/12/17 14:13:09;;;;;;;287.52;40.20;;;-5.30;99.90;;;;;;4990257;28;20203;-73
2022/12/17 14:15:36;;;;;;;182.43;36.97;;;-5.30;99.90;;;;;;4972372;28;20193;-72
2022/12/17 14:18:03;;;;;;;104.80;37.45;;;-5.30;99.90;;;;;;4972608;28;20728;-74
2022/12/17 14:20:34;;;;;;;96.93;35.15;;;-5.20;99.90;;;;;;4972652;28;20193;-75
2022/12/17 14:23:25;;;;;;;173.98;39.75;;;-5.20;99.90;;;;;;4989458;28;21020;-74
2022/12/17 14:25:51;;;;;;;162.48;33.72;;;-5.10;99.90;;;;;;4989724;28;20189;-74
2022/12/17 14:28:35;;;;;;;106.63;35.63;;;-5.00;99.90;;;;;;4990659;28;20681;-74
2022/12/17 14:31:14;;;;;;;119.43;37.92;;;-5.20;99.90;;;;;;4989820;28;20401;-74
2022/12/17 14:33:44;;;;;;;111.03;34.95;;;-5.00;99.90;;;;;;4989020;28;20245;-74
2022/12/17 14:36:20;;;;;;;84.05;34.33;;;-5.20;99.90;;;;;;4989075;28;20182;-73
2022/12/17 14:38:57;;;;;;;89.35;34.60;;;-5.20;99.90;;;;;;4989246;28;20208;-74
2022/12/17 14:44:26;;;;;;;82.70;31.52;;;-5.10;99.90;;;;;;4989149;28;20193;-75
2022/12/17 14:47:22;;;;;;;86.03;31.65;;;-5.10;99.90;;;;;;4989094;28;20205;-74
2022/12/17 14:50:22;;;;;;;71.88;29.20;;;-5.20;99.90;;;;;;4989062;28;20182;-74
2022/12/17 14:52:51;;;;;;;93.28;36.00;;;-5.30;99.90;;;;;;4988957;28;20200;-74
2022/12/17 14:55:32;;;;;;;93.13;34.03;;;-5.50;99.90;;;;;;4989378;28;20227;-75
2022/12/17 14:58:14;;;;;;;81.90;34.38;;;-5.40;99.90;;;;;;4989225;28;20227;-73
2022/12/17 15:01:07;;;;;;;190.25;34.38;;;-5.30;99.90;;;;;;4989380;28;20188;-73
2022/12/17 15:03:38;;;;;;;283.05;36.38;;;-5.30;99.90;;;;;;4982129;28;20248;-73
2022/12/17 15:06:06;;;;;;;67.75;29.15;;;-5.30;99.90;;;;;;4989346;28;20212;-73
2022/12/17 15:08:34;;;;;;;118.32;42.20;;;-5.20;99.90;;;;;;4971670;28;20224;-73
2022/12/17 15:11:01;;;;;;;102.13;36.92;;;-5.20;99.90;;;;;;4989442;28;20189;-73
2022/12/17 15:13:26;;;;;;;299.63;38.50;;;-5.20;99.90;;;;;;4989317;28;20200;-73
2022/12/17 15:15:52;;;;;;;193.90;33.60;;;-5.30;99.90;;;;;;4989133;28;20239;-73
2022/12/17 15:18:18;;;;;;;125.13;31.40;;;-5.40;99.90;;;;;;4988960;28;20186;-73
2022/12/17 15:20:44;;;;;;;86.30;30.33;;;-5.50;99.90;;;;;;4971767;28;20193;-73
2022/12/17 15:23:15;;;;;;;81.07;32.40;;;-5.50;99.90;;;;;;4988833;28;20621;-73
2022/12/17 15:25:41;;;;;;;133.10;36.83;;;-5.50;99.90;;;;;;4971245;28;21117;-73
2022/12/17 15:28:08;;;;;;;108.67;36.03;;;-5.50;99.90;;;;;;4988552;28;20220;-73
2022/12/17 15:30:34;;;;;;;97.07;33.38;;;-5.50;99.90;;;;;;4988415;28;20199;-73
2022/12/17 15:32:59;;;;;;;152.77;33.33;;;-5.60;99.90;;;;;;4988360;28;20225;-73
2022/12/17 15:35:25;;;;;;;142.53;33.30;;;-5.80;99.90;;;;;;4988474;28;20181;-73
2022/12/17 15:37:50;;;;;;;286.00;36.27;;;-6.00;99.90;;;;;;4988657;28;20678;-73
2022/12/17 15:40:16;;;;;;;242.33;35.47;;;-6.30;99.90;;;;;;4988403;28;20192;-73
2022/12/17 15:45:26;;;;;;;170.88;35.97;;;-6.60;99.90;;;;;;4988615;28;20207;-73
2022/12/17 15:47:52;;;;;;;113.33;34.37;;;-6.70;99.90;;;;;;4988415;28;20685;-74
2022/12/17 15:50:17;;;;;;;94.40;32.70;;;-6.70;99.90;;;;;;4988192;28;20603;-73
2022/12/17 15:52:43;;;;;;;68.80;31.10;;;-6.60;99.90;;;;;;4988211;28;20297;-73
2022/12/17 15:55:09;;;;;;;74.77;31.67;;;-6.50;99.90;;;;;;4988221;28;20589;-73
2022/12/17 15:57:34;;;;;;;80.43;31.70;;;-6.50;99.90;;;;;;4971052;28;20255;-73
2022/12/17 16:00:00;;;;;;;96.63;38.33;;;-6.40;99.90;;;;;;4970934;28;20679;-73
2022/12/17 16:02:25;;;;;;;103.40;35.53;;;-6.30;99.90;;;;;;4970804;28;20270;-73
2022/12/17 16:04:51;;;;;;;129.07;31.90;;;-6.40;99.90;;;;;;4988272;28;20278;-73
2022/12/17 16:07:19;;;;;;;130.27;34.13;;;-6.40;99.90;;;;;;4954660;28;20217;-73
2022/12/17 16:09:45;;;;;;;164.52;32.47;;;-6.30;99.90;;;;;;4988383;28;20182;-73
2022/12/17 16:12:11;;;;;;;180.33;30.10;;;-6.40;99.90;;;;;;4970798;28;20211;-73
2022/12/17 16:14:36;;;;;;;361.37;36.93;;;-6.40;99.90;;;;;;4971816;28;20188;-73
2022/12/17 16:17:02;;;;;;;170.87;31.63;;;-6.50;99.90;;;;;;4991704;28;20203;-73
2022/12/17 16:19:27;;;;;;;72.40;23.30;;;-6.60;99.90;;;;;;4991660;28;20763;-74
2022/12/17 16:21:53;;;;;;;67.43;25.50;;;-6.70;99.90;;;;;;4974078;28;20339;-75
2022/12/17 16:24:19;;;;;;;56.63;23.73;;;-6.80;99.90;;;;;;4957902;28;20268;-74
2022/12/17 16:26:44;;;;;;;171.97;25.93;;;-6.80;99.90;;;;;;4991462;28;20584;-74
2022/12/17 16:29:10;;;;;;;74.53;23.70;;;-6.90;99.90;;;;;;4958200;28;20266;-74
2022/12/17 16:31:36;;;;;;;275.63;30.17;;;-6.90;99.90;;;;;;4991603;28;20587;-73
2022/12/17 16:34:02;;;;;;;424.20;34.23;;;-7.10;99.90;;;;;;4992468;28;20422;-73
2022/12/17 16:36:27;;;;;;;385.90;35.20;;;-7.10;99.90;;;;;;4974629;28;20562;-78
2022/12/17 16:38:54;;;;;;;216.50;32.40;;;-7.20;99.90;;;;;;4991205;28;20949;-76
2022/12/17 16:41:21;;;;;;;263.77;33.55;;;-7.30;99.90;;;;;;4973828;28;20228;-76
2022/12/17 16:43:47;;;;;;;156.90;29.63;;;-7.50;99.90;;;;;;4973299;28;20830;-76
2022/12/17 16:46:32;;;;;;;73.05;28.88;;;-7.60;99.90;;;;;;4957098;28;20652;-76
2022/12/17 16:49:03;;;;;;;57.92;26.58;;;-7.60;99.90;;;;;;4991088;28;20191;-76
2022/12/17 16:51:29;;;;;;;63.25;27.02;;;-7.50;99.90;;;;;;4991127;28;20183;-75
2022/12/17 16:53:55;;;;;;;69.37;30.70;;;-7.70;99.90;;;;;;4973514;28;20194;-76
2022/12/17 16:56:26;;;;;;;68.10;27.73;;;-7.70;99.90;;;;;;4990945;28;20187;-76
2022/12/17 16:58:56;;;;;;;54.03;24.63;;;-7.70;99.90;;;;;;4973208;28;20183;-76
2022/12/17 17:01:27;;;;;;;55.63;21.92;;;-7.70;99.90;;;;;;4991056;28;20184;-76
2022/12/17 17:03:53;;;;;;;60.95;24.70;;;-7.80;99.90;;;;;;4990653;28;20183;-75
2022/12/17 17:06:19;;;;;;;56.08;25.45;;;-7.80;99.90;;;;;;4990729;28;20180;-75
2022/12/17 17:08:45;;;;;;;45.88;22.33;;;-7.80;99.90;;;;;;4972856;28;20679;-75
2022/12/17 17:11:12;;;;;;;44.35;22.20;;;-7.80;99.90;;;;;;4972662;28;20191;-75
2022/12/17 17:13:39;;;;;;;105.88;23.00;;;-7.80;99.90;;;;;;4990318;28;20195;-75
2022/12/17 17:16:06;;;;;;;108.18;24.30;;;-7.80;99.90;;;;;;4990184;28;20266;-75
2022/12/17 17:18:32;;;;;;;235.77;51.47;;;-7.80;99.90;;;;;;4990377;28;20192;-75
2022/12/17 17:21:17;;;;;;;93.30;35.85;;;-7.80;99.90;;;;;;4990573;28;20562;-75
2022/12/17 17:23:43;;;;;;;64.30;29.48;;;-7.90;99.90;;;;;;4990514;28;20242;-75
2022/12/17 17:26:09;;;;;;;72.30;39.17;;;-7.90;99.90;;;;;;4971793;28;20264;-75
2022/12/17 17:28:35;;;;;;;55.23;29.20;;;-7.90;99.90;;;;;;4990078;28;20925;-75
2022/12/17 17:31:02;;;;;;;63.87;29.93;;;-7.90;99.90;;;;;;4956777;28;20446;-75
2022/12/17 17:33:34;;;;;;;49.53;23.85;;;-8.00;99.90;;;;;;4972398;28;20723;-75
2022/12/17 17:36:07;;;;;;;43.40;22.40;;;-8.00;99.90;;;;;;4972671;28;20183;-75
2022/12/17 17:38:35;;;;;;;40.65;21.00;;;-8.00;99.90;;;;;;4989879;28;20188;-75
2022/12/17 17:41:01;;;;;;;47.60;21.55;;;-8.10;99.90;;;;;;4972267;28;20197;-75
2022/12/17 17:43:27;;;;;;;174.35;25.08;;;-8.00;99.90;;;;;;4989779;28;20202;-76
2022/12/17 17:45:56;;;;;;;79.50;20.43;;;-8.10;99.90;;;;;;4972516;28;20197;-75
2022/12/17 17:48:22;;;;;;;99.25;20.45;;;-8.10;99.90;;;;;;4989629;28;20214;-75
2022/12/17 17:50:59;;;;;;;70.53;19.90;;;-8.20;99.90;;;;;;4990424;28;20191;-75
2022/12/17 17:53:25;;;;;;;81.65;19.02;;;-8.10;99.90;;;;;;4972223;28;20219;-75
2022/12/17 17:55:51;;;;;;;44.50;19.55;;;-8.10;99.90;;;;;;4989857;28;20189;-75
2022/12/17 17:58:17;;;;;;;66.63;22.37;;;-8.10;99.90;;;;;;4956006;28;20563;-75
2022/12/17 18:00:42;;;;;;;41.80;20.13;;;-8.10;99.90;;;;;;4972303;28;20187;-75
2022/12/17 18:03:08;;;;;;;65.73;25.20;;;-8.10;99.90;;;;;;4971966;28;20937;-76
2022/12/17 18:05:37;;;;;;;52.83;23.37;;;-8.10;99.90;;;;;;4971914;28;20208;-75
2022/12/17 18:08:03;;;;;;;54.50;23.90;;;-8.20;99.90;;;;;;4971645;28;20685;-75
2022/12/17 18:10:29;;;;;;;64.00;21.90;;;-8.30;99.90;;;;;;4989602;28;20233;-76
2022/12/17 18:15:39;;;;;;;65.35;23.95;;;-8.30;99.90;;;;;;4975086;28;20305;-76
2022/12/17 18:18:04;;;;;;;49.10;22.13;;;-8.20;99.90;;;;;;4972225;28;20272;-76
2022/12/17 18:20:30;;;;;;;59.33;24.50;;;-8.20;99.90;;;;;;4989845;28;20596;-76
2022/12/17 18:22:55;;;;;;;54.17;25.20;;;-8.20;99.90;;;;;;4972019;28;20209;-76
2022/12/17 18:25:21;;;;;;;58.63;27.37;;;-8.20;99.90;;;;;;4989301;28;20714;-76
2022/12/17 18:27:47;;;;;;;71.70;31.13;;;-8.20;99.90;;;;;;4971786;28;20220;-76
2022/12/17 18:30:14;;;;;;;77.53;33.83;;;-8.20;99.90;;;;;;4990374;28;20214;-76
2022/12/17 18:32:40;;;;;;;75.90;36.60;;;-8.20;99.90;;;;;;4972593;28;20804;-76
2022/12/17 18:35:06;;;;;;;68.43;30.70;;;-8.30;99.90;;;;;;4989580;28;20283;-76
2022/12/17 18:37:32;;;;;;;58.85;25.38;;;-8.30;99.90;;;;;;4996774;28;20176;-76
2022/12/17 18:39:58;;;;;;;54.50;24.40;;;-8.30;99.90;;;;;;4996346;28;20182;-75
2022/12/17 18:45:13;;;;;;;69.32;31.23;;;-8.40;99.90;;;;;;4998677;28;20185;-75
2022/12/17 18:47:41;;;;;;;84.13;31.95;;;-8.70;99.90;;;;;;5011431;28;20250;-76
2022/12/17 18:50:07;;;;;;;63.92;28.55;;;-8.80;99.90;;;;;;4983960;28;20193;-76
2022/12/17 18:52:33;;;;;;;57.50;27.42;;;-8.70;99.90;;;;;;5001088;28;20621;-76
2022/12/17 18:54:59;;;;;;;64.57;29.90;;;-8.60;99.90;;;;;;5000891;28;20269;-76
2022/12/17 18:57:24;;;;;;;72.30;28.00;;;-8.60;99.90;;;;;;4983978;28;20182;-76
2022/12/17 18:59:52;;;;;;;57.23;25.03;;;-8.60;99.90;;;;;;4983433;28;20213;-76
2022/12/17 19:02:18;;;;;;;55.33;25.50;;;-8.60;99.90;;;;;;4981832;28;20225;-75
2022/12/17 19:04:44;;;;;;;47.53;19.70;;;-8.60;99.90;;;;;;4973421;28;20234;-76
2022/12/17 19:07:09;;;;;;;51.33;20.90;;;-8.60;99.90;;;;;;4972478;28;20209;-76
2022/12/17 19:09:37;;;;;;;62.37;28.77;;;-8.60;99.90;;;;;;4957250;28;20549;-76
2022/12/17 19:12:07;;;;;;;63.83;29.50;;;-8.60;99.90;;;;;;4955992;28;20451;-75
2022/12/17 19:14:34;;;;;;;41.25;19.85;;;-8.70;99.90;;;;;;4988971;28;20178;-76
2022/12/17 19:17:00;;;;;;;37.92;18.17;;;-8.70;99.90;;;;;;4971731;28;20754;-76
2022/12/17 19:19:26;;;;;;;38.22;19.85;;;-8.80;99.90;;;;;;4988996;28;20253;-76
2022/12/17 19:21:53;;;;;;;40.93;17.80;;;-8.80;99.90;;;;;;4971721;28;20290;-76
2022/12/17 19:24:20;;;;;;;38.40;19.58;;;-8.80;99.90;;;;;;4955848;28;20991;-76
2022/12/17 19:26:47;;;;;;;41.75;18.80;;;-8.90;99.90;;;;;;4972892;28;20306;-76
2022/12/17 19:29:14;;;;;;;38.95;18.25;;;-8.90;99.90;;;;;;4972641;28;20566;-76
2022/12/17 19:31:40;;;;;;;43.13;18.67;;;-8.90;99.90;;;;;;4990202;28;20189;-76
2022/12/17 19:34:09;;;;;;;43.80;19.50;;;-9.00;99.90;;;;;;4990213;28;20180;-76
2022/12/17 19:36:36;;;;;;;38.88;18.75;;;-9.00;99.90;;;;;;4990356;28;20189;-76
2022/12/17 19:39:06;;;;;;;39.90;19.20;;;-8.90;99.90;;;;;;4972904;28;20199;-76
2022/12/17 19:41:33;;;;;;;54.72;24.70;;;-8.90;99.90;;;;;;4990828;28;20182;-76
2022/12/17 19:44:01;;;;;;;76.57;36.13;;;-9.00;99.90;;;;;;4990359;28;20217;-76
2022/12/17 19:46:28;;;;;;;45.58;19.30;;;-8.90;99.90;;;;;;4972438;28;20194;-76
2022/12/17 19:48:55;;;;;;;41.70;22.33;;;-9.00;99.90;;;;;;4972338;28;20176;-76
2022/12/17 19:51:22;;;;;;;42.95;22.83;;;-9.00;99.90;;;;;;4993377;28;20182;-76
2022/12/17 19:53:49;;;;;;;73.05;29.17;;;-9.10;99.90;;;;;;4975932;28;20183;-76
2022/12/17 19:56:26;;;;;;;70.50;30.55;;;-9.10;99.90;;;;;;4993112;28;20206;-76
2022/12/17 19:58:55;;;;;;;51.35;24.30;;;-9.10;99.90;;;;;;4959710;28;20215;-76
2022/12/17 20:01:29;;;;;;;43.17;22.35;;;-9.10;99.90;;;;;;4993222;28;20222;-76
2022/12/17 20:03:55;;;;;;;64.15;29.92;;;-9.10;99.90;;;;;;4993030;28;20191;-76
2022/12/17 20:06:24;;;;;;;81.25;32.55;;;-9.10;99.90;;;;;;4993089;28;20188;-76
2022/12/17 20:08:50;;;;;;;43.67;21.58;;;-9.10;99.90;;;;;;4977403;28;20189;-76
2022/12/17 20:11:31;;;;;;;72.80;29.03;;;-9.20;99.90;;;;;;4960022;28;20680;-76
2022/12/17 20:14:04;;;;;;;59.10;26.27;;;-9.30;99.90;;;;;;4992646;28;20185;-76
2022/12/17 20:16:31;;;;;;;85.28;33.45;;;-9.50;99.90;;;;;;4992976;28;20183;-76
2022/12/17 20:19:02;;;;;;;57.53;30.00;;;-9.40;99.90;;;;;;4993871;28;20259;-76
2022/12/17 20:21:28;;;;;;;51.53;25.10;;;-9.40;99.90;;;;;;4992639;28;20195;-76
2022/12/17 20:23:54;;;;;;;69.50;30.37;;;-9.30;99.90;;;;;;4992662;28;20181;-76
2022/12/17 20:26:20;;;;;;;80.53;36.30;;;-9.30;99.90;;;;;;4992855;28;20418;-76
2022/12/17 20:28:45;;;;;;;86.53;34.23;;;-9.30;99.90;;;;;;4992573;28;20471;-76
2022/12/17 20:31:11;;;;;;;69.63;32.30;;;-9.30;99.90;;;;;;4992582;28;20452;-76
2022/12/17 20:33:37;;;;;;;81.25;32.72;;;-9.30;99.90;;;;;;4974847;28;20222;-76
2022/12/17 20:36:08;;;;;;;74.50;34.33;;;-9.30;99.90;;;;;;4975126;28;20256;-76
2022/12/17 20:38:35;;;;;;;71.72;31.50;;;-9.40;99.90;;;;;;4974754;28;20192;-76
2022/12/17 20:41:01;;;;;;;69.72;29.40;;;-9.40;99.90;;;;;;4992520;28;20211;-76
2022/12/17 20:43:26;;;;;;;65.43;30.75;;;-9.40;99.90;;;;;;4992418;28;20218;-77
2022/12/17 20:45:56;;;;;;;83.17;32.47;;;-9.40;99.90;;;;;;4993749;28;20196;-76
2022/12/17 20:48:23;;;;;;;89.95;37.42;;;-9.40;99.90;;;;;;4992547;28;20468;-76
2022/12/17 20:50:49;;;;;;;76.20;32.00;;;-9.40;99.90;;;;;;4992558;28;20650;-76
2022/12/17 20:53:15;;;;;;;75.30;31.67;;;-9.40;99.90;;;;;;4992403;28;20210;-76
2022/12/17 20:55:41;;;;;;;75.97;34.85;;;-9.50;99.90;;;;;;4992415;28;20235;-74
2022/12/17 20:58:06;;;;;;;75.90;33.00;;;-9.60;99.90;;;;;;4974598;28;20192;-73
2022/12/17 21:00:32;;;;;;;62.20;29.07;;;-9.60;99.90;;;;;;4975087;28;20214;-73
2022/12/17 21:02:58;;;;;;;63.20;27.93;;;-9.60;99.90;;;;;;4994436;28;20298;-74
2022/12/17 21:05:25;;;;;;;61.30;28.57;;;-9.60;99.90;;;;;;4974878;28;20801;-73
2022/12/17 21:07:51;;;;;;;65.25;29.75;;;-9.70;99.90;;;;;;4992034;28;20494;-73
2022/12/17 21:10:17;;;;;;;113.18;40.28;;;-9.60;99.90;;;;;;4958528;28;20672;-73
2022/12/17 21:15:27;;;;;;;235.10;72.80;;;-9.60;99.90;;;;;;4992201;28;20919;-73
2022/12/17 21:17:53;;;;;;;202.13;67.37;;;-9.70;99.90;;;;;;4992051;28;20190;-73
2022/12/17 21:20:18;;;;;;;118.27;42.80;;;-9.70;99.90;;;;;;4992152;28;20199;-75
2022/12/17 21:22:44;;;;;;;103.97;41.17;;;-9.80;99.90;;;;;;4974603;28;20451;-76
2022/12/17 21:25:10;;;;;;;74.80;33.40;;;-9.80;99.90;;;;;;4992427;28;20189;-76
2022/12/17 21:27:35;;;;;;;79.20;35.37;;;-9.80;99.90;;;;;;4958820;28;20260;-76
2022/12/17 21:30:01;;;;;;;85.50;34.50;;;-9.80;99.90;;;;;;4942394;28;20193;-75
2022/12/17 21:32:27;;;;;;;58.57;30.07;;;-9.80;99.90;;;;;;4991954;28;20265;-76
2022/12/17 21:34:52;;;;;;;50.63;23.80;;;-9.90;99.90;;;;;;4958620;28;20191;-76
2022/12/17 21:37:18;;;;;;;51.30;23.13;;;-9.90;99.90;;;;;;4958603;28;20211;-76
2022/12/17 21:39:44;;;;;;;46.50;21.17;;;-10.00;99.90;;;;;;4974251;28;20269;-76
2022/12/17 21:44:54;;;;;;;59.88;24.73;;;-10.00;99.90;;;;;;4977310;28;20204;-76
2022/12/17 21:47:19;;;;;;;60.30;28.90;;;-10.00;99.90;;;;;;4974199;28;20216;-76
2022/12/17 21:49:45;;;;;;;103.63;39.43;;;-10.10;99.90;;;;;;4974005;28;20188;-78
2022/12/17 21:52:10;;;;;;;223.33;78.00;;;-10.10;99.90;;;;;;4974081;28;20206;-77
2022/12/17 21:54:36;;;;;;;90.67;35.50;;;-10.10;99.90;;;;;;4974187;28;20216;-77
2022/12/17 21:57:02;;;;;;;125.40;44.37;;;-10.20;99.90;;;;;;4973569;28;20181;-78
2022/12/17 21:59:27;;;;;;;241.40;81.83;;;-10.20;99.90;;;;;;4991147;28;20190;-77
2022/12/17 22:01:55;;;;;;;176.63;58.13;;;-10.20;99.90;;;;;;4973394;28;20345;-78
2022/12/17 22:04:22;;;;;;;101.40;41.08;;;-10.20;99.90;;;;;;4990685;28;20227;-76
2022/12/17 22:06:48;;;;;;;53.28;24.50;;;-10.30;99.90;;;;;;4990788;28;20300;-76
2022/12/17 22:09:13;;;;;;;145.63;55.47;;;-10.50;99.90;;;;;;4990991;28;20649;-77
2022/12/17 22:11:39;;;;;;;133.40;50.83;;;-10.40;99.90;;;;;;4972866;28;20437;-76
2022/12/17 22:14:05;;;;;;;106.33;43.17;;;-10.40;99.90;;;;;;4972829;28;20276;-77
2022/12/17 22:16:41;;;;;;;88.75;41.42;;;-10.30;99.90;;;;;;4973022;28;20190;-77
2022/12/17 22:19:11;;;;;;;66.50;31.58;;;-10.30;99.90;;;;;;4990738;28;20262;-77
2022/12/17 22:21:41;;;;;;;52.55;23.67;;;-10.30;99.90;;;;;;4972632;28;20564;-77
2022/12/17 22:24:12;;;;;;;92.60;35.80;;;-10.20;99.90;;;;;;4990348;28;20575;-77
2022/12/17 22:26:38;;;;;;;96.28;36.42;;;-10.10;99.90;;;;;;4972602;28;20188;-76
2022/12/17 22:29:03;;;;;;;82.03;33.20;;;-10.20;99.90;;;;;;4972577;28;20186;-77
2022/12/17 22:34:13;;;;;;;62.95;26.90;;;-10.20;99.90;;;;;;4990648;28;20220;-77
2022/12/17 22:36:39;;;;;;;51.93;23.17;;;-10.20;99.90;;;;;;4940342;28;20653;-76
2022/12/17 22:39:10;;;;;;;49.07;22.73;;;-10.40;99.90;;;;;;4990186;28;20196;-77
2022/12/17 22:44:22;;;;;;;40.83;20.58;;;-10.50;99.90;;;;;;4990350;28;20311;-77
2022/12/17 22:46:48;;;;;;;52.80;21.85;;;-10.50;99.90;;;;;;4989839;28;20180;-79
2022/12/17 22:49:14;;;;;;;50.77;23.73;;;-10.40;99.90;;;;;;4956155;28;20190;-78
2022/12/17 22:51:41;;;;;;;88.38;33.05;;;-10.30;99.90;;;;;;4989868;28;20185;-79
2022/12/17 22:54:07;;;;;;;50.53;24.42;;;-10.40;99.90;;;;;;4990114;28;20241;-78
2022/12/17 22:56:37;;;;;;;50.07;21.77;;;-10.40;99.90;;;;;;4973034;28;20193;-79
2022/12/17 22:59:03;;;;;;;45.65;21.05;;;-10.50;99.90;;;;;;4990230;28;20833;-78
2022/12/17 23:01:29;;;;;;;41.13;19.63;;;-10.60;99.90;;;;;;4972183;28;20213;-77
2022/12/17 23:03:56;;;;;;;39.13;18.40;;;-10.80;99.90;;;;;;4941137;28;20520;-77
2022/12/17 23:06:22;;;;;;;43.22;19.52;;;-11.00;99.90;;;;;;4990558;28;20605;-77
2022/12/17 23:08:48;;;;;;;38.10;17.73;;;-11.20;99.90;;;;;;4956822;28;20244;-78
2022/12/17 23:11:22;;;;;;;42.30;20.77;;;-11.00;99.90;;;;;;4956337;28;21066;-77
2022/12/17 23:13:47;;;;;;;62.03;26.83;;;-10.70;99.90;;;;;;4956794;28;20299;-77
2022/12/17 23:16:14;;;;;;;45.27;22.00;;;-10.60;99.90;;;;;;4990022;28;20253;-78
2022/12/17 23:18:40;;;;;;;65.15;30.27;;;-10.60;99.90;;;;;;4972295;28;20193;-77
2022/12/17 23:21:14;;;;;;;45.90;20.67;;;-10.70;99.90;;;;;;4972239;28;20186;-78
2022/12/17 23:23:41;;;;;;;39.78;19.45;;;-10.70;99.90;;;;;;4972185;28;20576;-78
2022/12/17 23:26:20;;;;;;;61.70;28.83;;;-10.70;99.90;;;;;;4975965;28;20245;-78
2022/12/17 23:28:45;;;;;;;44.30;22.17;;;-10.80;99.90;;;;;;4975969;28;20212;-77
2022/12/17 23:31:19;;;;;;;55.73;26.10;;;-10.80;99.90;;;;;;4975878;28;20184;-77
2022/12/17 23:33:45;;;;;;;45.55;21.85;;;-10.80;99.90;;;;;;4993279;28;20700;-78
2022/12/17 23:36:16;;;;;;;53.40;22.70;;;-10.70;99.90;;;;;;4959616;28;20193;-78
2022/12/17 23:38:42;;;;;;;98.32;38.35;;;-10.80;99.90;;;;;;4993522;28;20169;-79
2022/12/17 23:41:12;;;;;;;54.88;27.08;;;-10.80;99.90;;;;;;4975752;28;20287;-78
2022/12/17 23:43:38;;;;;;;49.42;23.15;;;-10.80;99.90;;;;;;4975709;28;20562;-78
2022/12/17 23:46:05;;;;;;;44.28;21.20;;;-10.80;99.90;;;;;;4959676;28;20223;-78
2022/12/17 23:48:35;;;;;;;40.20;19.42;;;-10.80;99.90;;;;;;4959770;28;20234;-78
2022/12/17 23:51:02;;;;;;;39.15;18.60;;;-10.80;99.90;;;;;;4975615;28;20634;-78
2022/12/17 23:53:29;;;;;;;40.33;20.80;;;-10.80;99.90;;;;;;4975303;28;20206;-77
2022/12/17 23:55:55;;;;;;;52.15;22.05;;;-10.90;99.90;;;;;;4959679;28;20201;-78
2022/12/17 23:58:21;;;;;;;49.07;23.07;;;-10.90;99.90;;;;;;4993566;28;20289;-78
